Time;durP1;ratioP1;P1;durP2;ratioP2;P2;SDS_P1;SDS_P2;PMS_P1;PMS_P2;Temp;Humidity;BMP_temperature;BMP_pressure;BME280_temperature;BME280_humidity;BME280_pressure;Samples;Min_cycle;Max_cycle;Signal;HPM_P1;HPM_P2
2022/09/24 00:01:39;;;;;;;39.88;33.40;;;;;;;12.49;100.00;68160.75;5048725;28;20041;-87
2022/09/24 00:04:06;;;;;;;40.13;31.13;;;;;;;;;;5048366;28;20533;-85
2022/09/24 00:06:46;;;;;;;39.50;33.42;;;;;;;12.47;100.00;68158.47;5049030;28;20119;-85
2022/09/24 00:09:20;;;;;;;43.55;30.67;;;;;;;12.47;100.00;68153.69;5049512;28;20057;-86
2022/09/24 00:11:47;;;;;;;40.85;31.77;;;;;;;;;;5049968;28;20041;-86
2022/09/24 00:14:12;;;;;;;44.58;37.60;;;;;;;;;;5048720;28;20045;-84
2022/09/24 00:16:39;;;;;;;43.58;37.95;;;;;;;12.48;100.00;68151.59;5065247;28;20037;-85
2022/09/24 00:19:05;;;;;;;44.30;37.45;;;;;;;12.47;100.00;68153.13;5064346;28;20045;-86
2022/09/24 00:21:31;;;;;;;47.45;38.78;;;;;;;;;;5049292;28;20072;-85
2022/09/24 00:24:00;;;;;;;44.95;37.47;;;;;;;12.49;100.00;68152.72;5049648;28;20140;-85
2022/09/24 00:29:11;;;;;;;49.22;38.85;;;;;;;12.45;100.00;68151.41;5049518;28;20056;-85
2022/09/24 00:31:37;;;;;;;49.30;36.65;;;;;;;12.44;100.00;68155.63;5049624;28;20083;-85
2022/09/24 00:34:02;;;;;;;51.63;40.60;;;;;;;12.47;100.00;68161.13;5064928;28;20045;-85
2022/09/24 00:36:28;;;;;;;48.35;40.03;;;;;;;;;;5064481;28;20033;-85
2022/09/24 00:38:56;;;;;;;50.47;39.00;;;;;;;12.48;100.00;68160.16;5048397;28;20041;-86
2022/09/24 00:41:24;;;;;;;54.58;40.13;;;;;;;12.47;100.00;68153.13;5048603;28;20412;-86
2022/09/24 00:43:50;;;;;;;49.65;37.38;;;;;;;12.47;100.00;68153.13;5058706;28;20297;-87
2022/09/24 00:46:31;;;;;;;51.88;40.88;;;;;;;;;;5046907;28;20451;-85
2022/09/24 00:49:01;;;;;;;52.13;36.65;;;;;;;;;;5048820;28;20056;-85
2022/09/24 00:51:28;;;;;;;54.53;42.65;;;;;;;;;;5049471;28;20049;-85
2022/09/24 00:53:58;;;;;;;53.05;40.33;;;;;;;12.50;100.00;68161.88;5048094;28;20063;-85
2022/09/24 00:56:24;;;;;;;50.72;38.85;;;;;;;12.49;100.00;68161.31;5054745;28;20056;-86
2022/09/24 00:58:51;;;;;;;53.13;41.42;;;;;;;;;;5063452;28;20033;-86
2022/09/24 01:01:20;;;;;;;51.42;35.30;;;;;;;12.46;100.00;68157.31;5054044;28;20127;-87
2022/09/24 01:03:46;;;;;;;49.57;35.43;;;;;;;12.46;100.00;68149.31;5055389;28;20044;-87
2022/09/24 01:06:12;;;;;;;49.63;34.95;;;;;;;12.44;100.00;68149.72;5069443;28;20037;-85
2022/09/24 01:08:38;;;;;;;45.25;36.22;;;;;;;;;;5055675;28;20144;-86
2022/09/24 01:11:18;;;;;;;45.40;35.08;;;;;;;;;;5069843;28;20060;-85
2022/09/24 01:14:18;;;;;;;44.33;29.85;;;;;;;12.40;100.00;68151.66;5058552;28;20104;-86
2022/09/24 01:16:46;;;;;;;44.15;29.83;;;;;;;12.34;100.00;68144.25;5056877;28;20131;-86
2022/09/24 01:19:47;;;;;;;42.00;28.83;;;;;;;12.33;100.00;68138.34;5055572;28;20044;-86
2022/09/24 01:22:24;;;;;;;38.63;23.95;;;;;;;12.31;100.00;68140.84;4954060;29;20039;-86
2022/09/24 01:24:59;;;;;;;41.38;29.15;;;;;;;12.34;100.00;68139.50;5039567;28;20041;-85
2022/09/24 01:27:58;;;;;;;39.22;29.83;;;;;;;12.36;100.00;68141.75;5053667;28;20577;-85
2022/09/24 01:30:24;;;;;;;;;;;;;;;12.31;100.00;68136.06;5043098;28;20043;-85
2022/09/24 01:32:59;;;;;;;36.92;25.90;;;;;;;12.26;100.00;68135.72;5052136;28;19967;-85
2022/09/24 01:35:33;;;;;;;40.70;28.23;;;;;;;;;;5053593;28;20045;-85
2022/09/24 01:38:22;;;;;;;36.20;25.00;;;;;;;12.30;100.00;68134.38;5068179;28;20129;-84
2022/09/24 01:40:48;;;;;;;35.65;27.13;;;;;;;;;;5051109;28;20518;-86
2022/09/24 01:43:14;;;;;;;37.30;26.52;;;;;;;;;;5053710;28;20071;-85
2022/09/24 01:45:40;;;;;;;41.08;26.98;;;;;;;;;;5050320;28;20041;-86
2022/09/24 01:48:06;;;;;;;38.60;26.88;;;;;;;12.35;100.00;68145.97;5051886;28;20079;-86
2022/09/24 01:50:34;;;;;;;33.78;24.40;;;;;;;;;;5053500;28;20033;-85
2022/09/24 01:53:15;;;;;;;36.45;23.75;;;;;;;12.30;100.00;68134.94;5052549;28;20052;-85
2022/09/24 01:55:48;;;;;;;33.15;24.73;;;;;;;12.26;100.00;68135.72;5067390;28;20128;-85
2022/09/24 01:58:22;;;;;;;33.13;23.00;;;;;;;12.27;100.00;68136.31;5051654;28;20099;-85
2022/09/24 02:00:56;;;;;;;31.38;21.42;;;;;;;12.25;100.00;68129.25;5051819;28;20036;-84
2022/09/24 02:03:28;;;;;;;32.22;23.90;;;;;;;12.26;100.00;68135.72;5049324;28;20049;-85
2022/09/24 02:06:15;;;;;;;32.67;24.63;;;;;;;12.23;100.00;68132.31;5051560;28;20029;-84
2022/09/24 02:08:45;;;;;;;31.63;21.88;;;;;;;12.19;100.00;68130.44;5067116;28;20037;-84
2022/09/24 02:11:11;;;;;;;32.60;23.35;;;;;;;12.21;100.00;68124.16;5051514;28;20120;-85
2022/09/24 02:13:59;;;;;;;34.88;25.75;;;;;;;12.20;100.00;68131.59;5051079;28;20112;-85
2022/09/24 02:16:28;;;;;;;34.88;25.38;;;;;;;;;;5048613;28;20397;-86
2022/09/24 02:18:57;;;;;;;36.33;24.20;;;;;;;12.19;100.00;68122.44;5051408;28;20069;-85
2022/09/24 02:21:23;;;;;;;37.90;25.60;;;;;;;;;;5051117;28;20056;-86
2022/09/24 02:24:00;;;;;;;32.78;22.75;;;;;;;;;;5051321;28;20087;-84
2022/09/24 02:26:26;;;;;;;33.28;23.83;;;;;;;12.16;100.00;68119.03;5052810;28;20045;-85
2022/09/24 02:28:51;;;;;;;33.60;23.70;;;;;;;12.14;100.00;68122.09;5066195;28;20294;-85
2022/09/24 02:31:23;;;;;;;33.80;23.48;;;;;;;12.15;100.00;68123.22;5049918;28;20123;-87
2022/09/24 02:36:34;;;;;;;35.92;25.25;;;;;;;;;;5047706;28;20052;-86
2022/09/24 02:39:00;;;;;;;36.50;26.33;;;;;;;12.14;100.00;68111.41;5065458;28;20512;-86
2022/09/24 02:41:26;;;;;;;36.00;24.65;;;;;;;;;;5051408;28;20091;-85
2022/09/24 02:43:51;;;;;;;33.97;24.60;;;;;;;;;;5050074;28;20164;-85
2022/09/24 02:46:17;;;;;;;33.60;22.92;;;;;;;12.10;100.00;68112.22;5050134;28;20425;-85
2022/09/24 02:48:42;;;;;;;33.38;22.27;;;;;;;;;;5050052;28;20110;-85
2022/09/24 02:51:07;;;;;;;35.33;24.55;;;;;;;12.10;100.00;68112.22;5050255;28;20415;-85
2022/09/24 02:53:33;;;;;;;32.50;23.27;;;;;;;;;;5050355;28;20064;-85
2022/09/24 02:56:01;;;;;;;32.40;22.58;;;;;;;12.06;100.00;68108.25;5049508;28;20423;-85
2022/09/24 02:58:28;;;;;;;34.42;23.33;;;;;;;12.08;100.00;68115.28;5051765;28;20055;-85
2022/09/24 03:00:56;;;;;;;34.20;24.40;;;;;;;12.08;100.00;68110.50;5065019;28;20450;-86
2022/09/24 03:03:22;;;;;;;35.33;23.40;;;;;;;12.07;100.00;68114.13;5049430;28;20037;-85
2022/09/24 03:05:49;;;;;;;38.75;24.77;;;;;;;12.05;100.00;68106.53;5063143;28;20115;-86
2022/09/24 03:08:14;;;;;;;35.65;24.75;;;;;;;12.01;100.00;68102.00;5047244;28;20049;-85
2022/09/24 03:10:39;;;;;;;37.38;24.92;;;;;;;;;;5049211;28;20420;-85
2022/09/24 03:13:05;;;;;;;39.90;26.50;;;;;;;;;;5051893;28;20048;-85
2022/09/24 03:15:31;;;;;;;41.28;25.33;;;;;;;12.01;100.00;68107.88;5047836;28;20102;-85
2022/09/24 03:17:56;;;;;;;39.53;26.33;;;;;;;;;;5050097;28;20496;-85
2022/09/24 03:20:23;;;;;;;42.73;24.13;;;;;;;12.00;100.00;68106.19;5049515;28;20048;-85
2022/09/24 03:22:51;;;;;;;44.15;28.50;;;;;;;;;;5048277;28;20324;-85
2022/09/24 03:25:17;;;;;;;46.03;30.98;;;;;;;11.98;100.00;68099.16;5050646;28;20043;-86
2022/09/24 03:27:42;;;;;;;43.75;28.65;;;;;;;;;;5048888;28;20399;-86
2022/09/24 03:32:52;;;;;;;46.15;29.42;;;;;;;;;;5047669;28;20855;-85
2022/09/24 03:35:18;;;;;;;48.30;30.80;;;;;;;12.03;100.00;68104.28;5048041;28;20033;-86
2022/09/24 03:37:44;;;;;;;51.30;33.72;;;;;;;12.04;100.00;68105.97;5047995;28;20297;-85
2022/09/24 03:40:09;;;;;;;55.00;34.00;;;;;;;12.05;100.00;68112.44;5043817;28;20100;-85
2022/09/24 03:42:35;;;;;;;53.72;33.67;;;;;;;12.06;100.00;68108.25;5064419;28;20037;-86
2022/09/24 03:45:00;;;;;;;57.30;34.72;;;;;;;;;;5046939;28;20033;-85
2022/09/24 03:47:26;;;;;;;60.17;35.33;;;;;;;;;;5049307;28;20053;-85
2022/09/24 03:49:52;;;;;;;56.63;37.35;;;;;;;;;;5057338;28;20041;-85
2022/09/24 03:52:17;;;;;;;59.95;36.60;;;;;;;12.08;100.00;68110.50;5064412;28;20047;-85
2022/09/24 03:54:43;;;;;;;58.72;35.30;;;;;;;12.08;100.00;68107.81;5059608;28;20037;-85
2022/09/24 03:57:08;;;;;;;58.70;34.47;;;;;;;;;;5042925;28;20033;-86
2022/09/24 03:59:33;;;;;;;61.65;40.05;;;;;;;12.09;100.00;68111.09;5057684;28;20475;-85
2022/09/24 04:01:58;;;;;;;57.88;36.90;;;;;;;;;;5054006;28;20049;-87
2022/09/24 04:04:24;;;;;;;59.55;35.42;;;;;;;;;;5051607;28;20048;-84
2022/09/24 04:06:49;;;;;;;60.77;38.07;;;;;;;12.06;100.00;68105.56;5051079;28;20044;-84
2022/09/24 04:09:14;;;;;;;59.72;38.10;;;;;;;12.11;100.00;68111.25;5054708;28;20299;-85
2022/09/24 04:11:40;;;;;;;59.90;36.10;;;;;;;12.09;100.00;68111.66;5053604;28;20033;-85
2022/09/24 04:14:05;;;;;;;58.72;38.78;;;;;;;12.11;100.00;68113.94;5049653;28;20035;-85
2022/09/24 04:16:30;;;;;;;64.72;36.80;;;;;;;;;;5050130;28;20029;-84
2022/09/24 04:18:56;;;;;;;60.55;35.60;;;;;;;12.09;100.00;68108.41;5048800;28;20053;-85
2022/09/24 04:21:22;;;;;;;64.32;36.78;;;;;;;12.08;100.00;68109.94;5050666;28;20065;-84
2022/09/24 04:23:47;;;;;;;61.53;37.00;;;;;;;12.09;100.00;68116.41;5046446;28;20072;-85
2022/09/24 04:26:12;;;;;;;68.28;42.08;;;;;;;12.13;100.00;68120.97;5048628;28;20036;-85
2022/09/24 04:28:38;;;;;;;65.20;36.85;;;;;;;12.10;100.00;68117.53;5049284;28;20052;-85
2022/09/24 04:31:03;;;;;;;57.20;35.55;;;;;;;12.11;100.00;68113.94;5049877;28;20095;-85
2022/09/24 04:33:29;;;;;;;58.40;36.47;;;;;;;12.13;100.00;68120.97;5057545;28;20129;-85
2022/09/24 04:35:54;;;;;;;65.20;42.03;;;;;;;;;;5052571;28;20131;-86
2022/09/24 04:38:20;;;;;;;64.87;40.07;;;;;;;12.15;100.00;68123.22;5054321;28;20124;-85
2022/09/24 04:40:46;;;;;;;59.17;36.95;;;;;;;12.14;100.00;68116.75;5049714;28;20300;-85
2022/09/24 04:43:11;;;;;;;66.93;38.03;;;;;;;12.15;100.00;68117.91;5050984;28;20047;-86
2022/09/24 04:45:37;;;;;;;61.40;37.17;;;;;;;12.14;100.00;68122.09;5058863;28;20456;-87
2022/09/24 04:48:02;;;;;;;63.63;37.15;;;;;;;12.15;100.00;68117.91;5051319;28;20051;-85
2022/09/24 04:50:32;;;;;;;63.38;39.85;;;;;;;12.16;100.00;68119.03;5042359;28;20044;-85
2022/09/24 04:52:57;;;;;;;63.42;41.50;;;;;;;;;;5048057;28;20773;-85
2022/09/24 04:55:23;;;;;;;62.78;44.45;;;;;;;12.17;100.00;68120.19;5042274;28;20045;-85
2022/09/24 04:57:49;;;;;;;63.90;40.13;;;;;;;12.15;100.00;68117.91;5045076;28;20032;-84
2022/09/24 05:00:16;;;;;;;69.15;42.85;;;;;;;;;;5044700;28;20045;-84
2022/09/24 05:02:42;;;;;;;68.55;41.67;;;;;;;12.17;100.00;68118.06;5050801;28;20132;-84
2022/09/24 05:05:08;;;;;;;68.05;41.92;;;;;;;12.18;100.00;68121.31;5033606;28;20075;-85
2022/09/24 05:07:33;;;;;;;66.45;43.72;;;;;;;;;;5045621;28;20048;-85
2022/09/24 05:09:59;;;;;;;65.15;41.35;;;;;;;;;;5048837;28;20430;-86
2022/09/24 05:12:25;;;;;;;64.03;41.92;;;;;;;12.16;100.00;68124.38;5050917;28;20061;-84
2022/09/24 05:14:50;;;;;;;61.92;39.58;;;;;;;12.15;100.00;68123.22;5050722;28;20432;-87
2022/09/24 05:17:15;;;;;;;63.13;41.90;;;;;;;12.15;100.00;68123.22;5047492;28;20068;-86
2022/09/24 05:19:41;;;;;;;64.45;40.47;;;;;;;12.14;100.00;68116.75;5050501;28;20784;-85
2022/09/24 05:22:06;;;;;;;59.85;37.92;;;;;;;12.13;100.00;68113.50;5049573;28;20500;-85
2022/09/24 05:24:31;;;;;;;60.78;39.55;;;;;;;12.13;100.00;68121.53;5048826;28;20068;-84
2022/09/24 05:27:09;;;;;;;57.00;39.03;;;;;;;12.15;100.00;68117.91;5048259;28;20037;-85
2022/09/24 05:29:39;;;;;;;67.90;40.97;;;;;;;12.11;100.00;68113.94;5031653;28;20045;-85
2022/09/24 05:32:10;;;;;;;59.53;37.78;;;;;;;12.11;100.00;68118.69;5051723;28;20043;-86
2022/09/24 05:34:35;;;;;;;65.40;39.85;;;;;;;12.12;100.00;68114.50;5039174;28;20140;-86
2022/09/24 05:37:02;;;;;;;65.72;41.70;;;;;;;12.14;100.00;68116.75;5064400;28;20503;-85
2022/09/24 05:39:28;;;;;;;65.57;39.88;;;;;;;12.13;100.00;68120.97;5049266;28;20049;-85
2022/09/24 05:41:53;;;;;;;65.35;38.58;;;;;;;;;;5047596;28;20684;-85
2022/09/24 05:44:20;;;;;;;66.03;38.63;;;;;;;12.15;100.00;68115.22;5044383;28;20045;-85
2022/09/24 05:46:47;;;;;;;64.43;41.30;;;;;;;12.14;100.00;68116.75;5049342;28;20037;-85
2022/09/24 05:49:12;;;;;;;67.05;40.17;;;;;;;12.13;100.00;68121.53;5048216;28;20048;-85
2022/09/24 05:51:37;;;;;;;64.80;41.65;;;;;;;12.12;100.00;68114.50;5050718;28;20037;-85
2022/09/24 05:54:03;;;;;;;64.35;40.08;;;;;;;12.14;100.00;68114.06;5045532;28;20500;-85
2022/09/24 05:56:28;;;;;;;60.65;37.80;;;;;;;;;;5038283;28;20047;-85
2022/09/24 05:58:53;;;;;;;62.08;40.80;;;;;;;;;;5032266;28;20041;-84
2022/09/24 06:01:19;;;;;;;62.28;40.25;;;;;;;12.16;100.00;68119.03;5067388;28;20120;-85
2022/09/24 06:03:44;;;;;;;65.93;43.35;;;;;;;;;;5050843;28;20044;-84
2022/09/24 06:06:10;;;;;;;66.90;43.85;;;;;;;12.19;100.00;68123.00;5046700;28;20586;-85
2022/09/24 06:08:35;;;;;;;71.90;47.35;;;;;;;12.17;100.00;68120.19;5049205;28;20053;-84
2022/09/24 06:11:04;;;;;;;73.20;44.22;;;;;;;12.17;100.00;68120.19;5052641;28;20090;-85
2022/09/24 06:13:30;;;;;;;68.25;42.38;;;;;;;12.18;100.00;68121.31;5052775;28;20041;-85
2022/09/24 06:16:04;;;;;;;73.15;43.50;;;;;;;12.18;100.00;68121.31;5053212;28;20147;-84
2022/09/24 06:18:30;;;;;;;71.60;42.08;;;;;;;12.21;100.00;68124.16;5053168;28;20059;-86
2022/09/24 06:21:00;;;;;;;71.57;46.95;;;;;;;12.22;100.00;68125.28;5050027;28;20060;-85
2022/09/24 06:23:45;;;;;;;68.60;44.88;;;;;;;12.21;100.00;68130.06;5046096;28;20040;-85
2022/09/24 06:26:18;;;;;;;72.63;44.65;;;;;;;12.20;100.00;68123.59;5045921;28;20033;-86
2022/09/24 06:28:44;;;;;;;70.82;44.85;;;;;;;;;;5040886;28;20526;-86
2022/09/24 06:31:11;;;;;;;73.15;44.97;;;;;;;12.22;100.00;68133.84;4992744;28;20038;-86
2022/09/24 06:33:37;;;;;;;72.85;42.72;;;;;;;12.25;100.00;68126.56;5010785;28;20072;-86
2022/09/24 06:36:03;;;;;;;73.78;45.83;;;;;;;;;;5010918;28;20057;-89
2022/09/24 06:38:29;;;;;;;71.85;43.53;;;;;;;12.28;100.00;68132.09;5051826;28;20049;-89
2022/09/24 06:40:59;;;;;;;73.40;46.25;;;;;;;12.29;100.00;68133.25;5020945;28;20045;-88
2022/09/24 06:43:25;;;;;;;77.47;48.90;;;;;;;12.29;100.00;68138.56;5037328;28;20050;-87
2022/09/24 06:46:09;;;;;;;;;;;;;;;;;;;;;
2022/09/24 06:48:47;;;;;;;78.78;52.13;;;;;;;;;;5015941;28;20079;-86
2022/09/24 06:51:14;;;;;;;79.32;47.17;;;;;;;;;;4991306;28;20046;-86
2022/09/24 06:53:40;;;;;;;75.90;46.05;;;;;;;;;;4972057;28;20046;-88
2022/09/24 06:56:05;;;;;;;72.60;47.10;;;;;;;12.42;100.00;68153.91;5024119;28;20539;-86
2022/09/24 06:58:32;;;;;;;74.05;46.28;;;;;;;12.42;100.00;68145.91;5055896;28;20076;-86
2022/09/24 07:01:00;;;;;;;71.55;46.67;;;;;;;;;;5059272;28;20037;-86
2022/09/24 07:03:28;;;;;;;73.20;46.75;;;;;;;12.48;100.00;68159.59;5049730;28;20048;-86
2022/09/24 07:05:53;;;;;;;75.60;45.58;;;;;;;;;;5050467;28;20036;-86
2022/09/24 07:08:19;;;;;;;69.55;46.60;;;;;;;12.53;100.00;68159.94;5051966;28;20052;-87
2022/09/24 07:10:47;;;;;;;71.05;45.30;;;;;;;12.56;100.00;68163.34;5060422;28;20033;-86
2022/09/24 07:13:13;;;;;;;71.68;47.90;;;;;;;;;;5050838;28;20086;-86
2022/09/24 07:15:39;;;;;;;71.03;45.58;;;;;;;;;;5050921;28;20037;-87
2022/09/24 07:18:08;;;;;;;72.57;44.38;;;;;;;12.65;100.00;68173.56;5057127;28;20045;-86
2022/09/24 07:20:35;;;;;;;65.47;41.30;;;;;;;;;;5064702;28;20033;-87
2022/09/24 07:23:02;;;;;;;73.65;42.63;;;;;;;12.69;100.00;68172.78;5056242;28;20045;-87
2022/09/24 07:25:27;;;;;;;66.43;41.88;;;;;;;12.75;100.00;68182.28;5046304;28;20045;-86
2022/09/24 07:27:53;;;;;;;68.97;45.88;;;;;;;12.75;100.00;68184.94;5044457;28;20072;-86
2022/09/24 07:30:18;;;;;;;65.38;38.38;;;;;;;12.74;100.00;68183.81;5045658;28;20048;-86
2022/09/24 07:32:44;;;;;;;65.18;43.85;;;;;;;12.77;100.00;68187.22;5047621;28;20072;-87
2022/09/24 07:35:09;;;;;;;62.00;38.55;;;;;;;12.80;100.00;68190.06;5044770;28;20685;-86
2022/09/24 07:37:34;;;;;;;63.83;41.65;;;;;;;12.82;100.00;68198.25;5046927;28;20080;-86
2022/09/24 07:40:00;;;;;;;63.00;43.08;;;;;;;;;;5045891;28;20033;-85
2022/09/24 07:42:25;;;;;;;62.97;43.97;;;;;;;;;;5047316;28;20079;-86
2022/09/24 07:44:51;;;;;;;64.38;44.20;;;;;;;12.86;100.00;68197.47;5044620;28;20041;-87
2022/09/24 07:47:16;;;;;;;59.72;36.25;;;;;;;;;;5042959;28;20090;-86
2022/09/24 07:49:41;;;;;;;64.95;43.28;;;;;;;12.92;100.00;68203.13;5044725;28;20135;-86
2022/09/24 07:52:07;;;;;;;57.63;37.72;;;;;;;;;;5043647;28;20700;-86
2022/09/24 07:54:32;;;;;;;59.63;40.58;;;;;;;12.92;100.00;68203.72;5043643;28;20069;-86
2022/09/24 07:56:59;;;;;;;56.17;38.55;;;;;;;12.93;100.00;68210.19;5047989;28;20059;-87
2022/09/24 07:59:24;;;;;;;58.92;41.10;;;;;;;12.91;100.00;68210.56;5062761;28;20111;-87
2022/09/24 08:01:50;;;;;;;55.10;36.95;;;;;;;12.94;100.00;68202.72;5048466;28;20041;-87
2022/09/24 08:04:17;;;;;;;58.40;41.75;;;;;;;;;;5045677;28;20558;-87
2022/09/24 08:06:42;;;;;;;55.97;39.55;;;;;;;;;;5047396;28;20072;-86
2022/09/24 08:09:07;;;;;;;55.95;34.88;;;;;;;13.04;100.00;68217.34;5062924;28;20060;-87
2022/09/24 08:11:33;;;;;;;58.45;38.67;;;;;;;13.12;100.00;68225.88;5064290;28;20041;-86
2022/09/24 08:13:58;;;;;;;54.58;34.05;;;;;;;;;;5047755;28;20087;-86
2022/09/24 08:16:25;;;;;;;57.95;36.95;;;;;;;13.13;100.00;68227.00;5043535;28;20060;-87
2022/09/24 08:18:51;;;;;;;52.10;34.47;;;;;;;;;;5047187;28;20128;-87
2022/09/24 08:21:16;;;;;;;48.22;31.95;;;;;;;13.19;100.00;68233.25;5044736;28;29013;-87
2022/09/24 08:23:42;;;;;;;40.85;26.77;;;;;;;;;;5046035;28;20051;-87
2022/09/24 08:26:09;;;;;;;38.75;28.95;;;;;;;13.18;100.00;68232.69;5044069;28;20032;-87
2022/09/24 08:28:35;;;;;;;42.22;29.95;;;;;;;13.26;100.00;68241.81;5047074;28;20069;-87
2022/09/24 08:31:02;;;;;;;36.65;25.90;;;;;;;;;;5045444;28;20538;-86
2022/09/24 08:33:30;;;;;;;31.75;23.95;;;;;;;13.28;100.00;68243.53;5045737;28;20045;-87
2022/09/24 08:35:57;;;;;;;35.90;23.95;;;;;;;;;;5048509;28;20037;-87
2022/09/24 08:38:23;;;;;;;29.70;23.17;;;;;;;;;;5011155;28;20037;-86
2022/09/24 08:41:00;;;;;;;29.55;20.60;;;;;;;13.36;100.00;68257.41;4985642;28;20042;-86
2022/09/24 08:43:51;;;;;;;28.10;22.23;;;;;;;13.36;100.00;68252.63;4950223;28;20039;-86
2022/09/24 08:49:23;;;;;;;29.02;23.33;;;;;;;;;;4971441;28;20221;-86
2022/09/24 08:52:18;;;;;;;29.02;19.90;;;;;;;13.48;100.00;68271.63;4950486;28;20042;-87
2022/09/24 08:54:44;;;;;;;27.30;20.13;;;;;;;13.51;100.00;68275.03;4952034;28;20110;-87
2022/09/24 08:57:11;;;;;;;28.83;19.90;;;;;;;;;;4965260;28;20122;-87
2022/09/24 08:59:42;;;;;;;26.50;18.92;;;;;;;13.64;100.00;68281.22;4953255;28;20047;-87
2022/09/24 09:02:32;;;;;;;26.58;20.45;;;;;;;13.74;100.00;68292.59;4967542;28;20049;-87
2022/09/24 09:05:00;;;;;;;23.90;18.77;;;;;;;;;;4966500;28;20061;-86
2022/09/24 09:07:48;;;;;;;24.38;18.45;;;;;;;;;;4980782;28;20047;-87
2022/09/24 09:10:27;;;;;;;22.88;15.60;;;;;;;13.74;100.00;68300.63;4993959;28;20136;-87
2022/09/24 09:13:01;;;;;;;22.27;17.95;;;;;;;13.71;100.00;68291.28;5063204;28;20495;-86
2022/09/24 09:15:32;;;;;;;22.35;16.05;;;;;;;13.68;100.00;68293.78;5046758;28;20069;-86
2022/09/24 09:18:27;;;;;;;19.77;16.08;;;;;;;13.67;100.00;68287.31;5046595;28;20044;-86
2022/09/24 09:21:01;;;;;;;18.77;14.00;;;;;;;13.73;100.00;68288.78;5029639;28;20048;-87
2022/09/24 09:23:38;;;;;;;19.70;15.88;;;;;;;;;;5048690;28;20045;-86
2022/09/24 09:26:05;;;;;;;19.90;16.00;;;;;;;;;;5061960;28;20086;-86
2022/09/24 09:28:31;;;;;;;19.20;13.77;;;;;;;13.77;100.00;68296.00;5046461;28;20504;-87
2022/09/24 09:31:07;;;;;;;19.45;15.35;;;;;;;;;;5047190;28;20173;-87
2022/09/24 09:33:41;;;;;;;20.90;16.98;;;;;;;13.98;100.00;68321.44;5023688;28;20407;-86
2022/09/24 09:36:50;;;;;;;21.65;17.55;;;;;;;13.95;100.00;68315.34;5056439;28;20062;-88
2022/09/24 09:39:45;;;;;;;19.98;15.60;;;;;;;13.99;100.00;68322.59;5040816;28;20033;-87
2022/09/24 09:42:34;;;;;;;20.63;16.65;;;;;;;14.06;100.00;68325.19;5016810;23;20070;-88
2022/09/24 09:45:01;;;;;;;;;;;;;;;14.09;100.00;68333.38;5014492;28;20065;-87
2022/09/24 09:47:41;;;;;;;21.05;15.10;;;;;;;;;;5018438;28;20387;-87
2022/09/24 09:50:24;;;;;;;24.52;18.17;;;;;;;14.18;100.00;68344.22;5023820;28;20570;-87
2022/09/24 09:52:49;;;;;;;21.88;16.23;;;;;;;14.22;100.00;68345.50;5017691;28;20046;-88
2022/09/24 09:55:25;;;;;;;23.67;17.45;;;;;;;14.14;100.00;68336.41;4987875;28;20045;-86
2022/09/24 09:57:51;;;;;;;26.50;18.92;;;;;;;14.11;100.00;68330.88;5017769;28;20563;-88
2022/09/24 10:00:35;;;;;;;25.92;18.40;;;;;;;14.08;100.00;68332.81;5001511;28;20081;-87
2022/09/24 10:03:04;;;;;;;23.00;18.33;;;;;;;14.11;100.00;68336.22;5010087;28;20037;-93
2022/09/24 10:05:29;;;;;;;22.85;17.42;;;;;;;;;;5006146;28;20038;-87
2022/09/24 10:08:00;;;;;;;22.48;15.90;;;;;;;14.13;100.00;68343.31;5004478;28;20049;-88
2022/09/24 10:10:28;;;;;;;18.88;15.82;;;;;;;14.10;100.00;68335.09;4981099;28;20053;-87
2022/09/24 10:13:13;;;;;;;20.73;15.48;;;;;;;14.12;100.00;68337.38;4996679;28;20046;-89
2022/09/24 10:15:49;;;;;;;18.73;14.05;;;;;;;14.03;100.00;68327.13;4977918;28;20527;-88
2022/09/24 10:18:14;;;;;;;19.30;13.43;;;;;;;;;;4969537;28;20759;-88
2022/09/24 10:20:47;;;;;;;20.38;12.45;;;;;;;14.03;100.00;68327.13;5001744;28;20056;-88
2022/09/24 10:23:19;;;;;;;17.05;13.82;;;;;;;14.03;100.00;68327.13;4989852;28;20046;-88
2022/09/24 10:25:59;;;;;;;17.90;13.70;;;;;;;14.04;100.00;68333.03;5006174;28;20124;-88
2022/09/24 10:31:13;;;;;;;17.17;11.93;;;;;;;13.98;100.00;68322.03;5007675;28;20133;-88
2022/09/24 10:33:41;;;;;;;17.60;13.23;;;;;;;13.99;100.00;68322.59;4991546;28;20056;-88
2022/09/24 10:36:13;;;;;;;18.43;12.37;;;;;;;;;;5005730;28;20241;-88
2022/09/24 10:38:38;;;;;;;18.92;16.50;;;;;;;13.91;100.00;68314.03;4990435;28;20034;-89
2022/09/24 10:41:24;;;;;;;19.10;15.10;;;;;;;;;;4988998;28;20112;-88
2022/09/24 10:43:53;;;;;;;18.40;13.50;;;;;;;13.96;100.00;68316.50;5010301;28;20053;-87
2022/09/24 10:46:46;;;;;;;18.85;12.85;;;;;;;13.90;100.00;68310.25;5005423;28;20042;-89
2022/09/24 10:49:32;;;;;;;19.73;14.35;;;;;;;13.91;100.00;68313.47;5022073;28;20033;-88
2022/09/24 10:52:22;;;;;;;18.42;14.15;;;;;;;13.95;100.00;68318.03;5007670;28;20149;-87
2022/09/24 10:54:59;;;;;;;20.40;14.57;;;;;;;14.00;100.00;68324.28;5002860;28;20042;-88
2022/09/24 10:57:38;;;;;;;21.33;15.90;;;;;;;14.09;100.00;68330.72;5020592;28;20758;-87
2022/09/24 11:00:03;;;;;;;;;;;;;;;;;;5023247;28;20053;-87
2022/09/24 11:02:58;;;;;;;18.77;14.07;;;;;;;14.04;100.00;68325.00;5009791;28;20323;-87
2022/09/24 11:05:32;;;;;;;18.60;14.65;;;;;;;14.02;100.00;68326.00;4998085;28;20129;-88
2022/09/24 11:08:06;;;;;;;21.40;15.50;;;;;;;14.07;100.00;68329.00;5023912;28;20059;-89
2022/09/24 11:10:52;;;;;;;20.38;16.15;;;;;;;;;;4984070;28;20505;-88
2022/09/24 11:13:24;;;;;;;22.30;17.55;;;;;;;;;;5001081;28;20050;-88
2022/09/24 11:16:02;;;;;;;20.95;16.75;;;;;;;14.22;100.00;68348.19;5009391;28;20651;-87
2022/09/24 11:19:00;;;;;;;27.25;18.13;;;;;;;;;;4995532;28;20041;-87
2022/09/24 11:21:56;;;;;;;20.23;14.27;;;;;;;14.10;100.00;68335.09;4939489;28;20065;-87
2022/09/24 11:24:24;;;;;;;20.55;14.10;;;;;;;;;;4953686;28;20125;-88
2022/09/24 11:26:56;;;;;;;21.58;16.08;;;;;;;14.18;100.00;68344.22;4985822;28;20139;-87
2022/09/24 11:29:40;;;;;;;23.27;15.30;;;;;;;;;;4983064;28;20137;-87
2022/09/24 11:32:32;;;;;;;23.23;17.33;;;;;;;14.25;100.00;68348.94;4983292;28;20043;-87
2022/09/24 11:35:19;;;;;;;22.05;16.38;;;;;;;14.20;100.00;68343.78;4951422;28;20513;-87
2022/09/24 11:37:55;;;;;;;20.70;16.23;;;;;;;14.21;100.00;68347.63;4971315;28;20668;-86
2022/09/24 11:40:43;;;;;;;22.42;16.63;;;;;;;14.11;100.00;68336.22;4958948;28;20054;-89
2022/09/24 11:43:27;;;;;;;22.90;16.15;;;;;;;;;;4964444;28;20114;-87
2022/09/24 11:46:10;;;;;;;20.83;15.75;;;;;;;14.15;100.00;68340.22;4973773;28;20042;-87
2022/09/24 11:48:49;;;;;;;20.73;16.73;;;;;;;14.23;100.00;68349.31;4950089;28;20055;-88
2022/09/24 11:51:19;;;;;;;20.50;16.55;;;;;;;;;;4946002;28;20110;-87
2022/09/24 11:53:56;;;;;;;20.63;15.77;;;;;;;14.16;100.00;68339.25;4995424;28;20085;-86
2022/09/24 11:56:35;;;;;;;23.23;16.98;;;;;;;14.18;100.00;68344.22;5002229;28;20120;-88
2022/09/24 11:59:19;;;;;;;17.05;15.15;;;;;;;14.24;100.00;68350.44;5009659;28;20034;-87
2022/09/24 12:01:51;;;;;;;19.30;15.73;;;;;;;;;;5013287;28;20041;-90
2022/09/24 12:04:22;;;;;;;16.25;12.82;;;;;;;14.21;100.00;68344.38;5028875;28;20018;-90
2022/09/24 12:06:56;;;;;;;19.02;15.25;;;;;;;14.16;100.00;68341.38;5042130;28;20072;-92
2022/09/24 12:10:14;;;;;;;18.15;14.23;;;;;;;14.18;100.00;68344.22;5049250;28;20510;-90
2022/09/24 12:12:44;;;;;;;18.30;14.85;;;;;;;14.14;100.00;68336.41;4992097;28;20192;-90
2022/09/24 12:15:19;;;;;;;18.63;14.63;;;;;;;;;;5013190;28;20033;-90
2022/09/24 12:17:47;;;;;;;20.38;17.10;;;;;;;;;;5014774;28;20094;-90
2022/09/24 12:20:20;;;;;;;20.42;13.98;;;;;;;;;;5016123;28;20035;-89
2022/09/24 12:22:58;;;;;;;18.67;15.48;;;;;;;14.25;100.00;68348.34;5001093;28;20050;-87
2022/09/24 12:25:31;;;;;;;19.85;15.13;;;;;;;14.28;100.00;68359.81;4996155;28;20156;-87
2022/09/24 12:27:58;;;;;;;18.63;14.32;;;;;;;14.25;100.00;68351.59;4994598;28;20121;-88
2022/09/24 12:33:44;;;;;;;16.05;13.25;;;;;;;;;;4989999;28;20101;-87
2022/09/24 12:36:22;;;;;;;18.20;14.35;;;;;;;14.20;100.00;68346.47;4995742;28;20037;-87